sensor_id;sensor_type;location;lat;lon;timestamp;P1;durP1;ratioP1;P2;durP2;ratioP2
74363;SDS011;62797;49.740;10.154;2023-10-08T00:01:20;8.88;;;4.15;;
74363;SDS011;62797;49.740;10.154;2023-10-08T00:03:47;10.75;;;3.25;;
74363;SDS011;62797;49.740;10.154;2023-10-08T00:06:19;9.52;;;3.70;;
74363;SDS011;62797;49.740;10.154;2023-10-08T00:08:48;11.07;;;3.35;;
74363;SDS011;62797;49.740;10.154;2023-10-08T00:11:14;11.15;;;4.40;;
74363;SDS011;62797;49.740;10.154;2023-10-08T00:13:43;7.22;;;4.38;;
74363;SDS011;62797;49.740;10.154;2023-10-08T00:16:10;9.57;;;4.22;;
74363;SDS011;62797;49.740;10.154;2023-10-08T00:18:37;10.48;;;4.38;;
74363;SDS011;62797;49.740;10.154;2023-10-08T00:21:06;7.20;;;3.67;;
74363;SDS011;62797;49.740;10.154;2023-10-08T00:23:34;9.63;;;3.70;;
74363;SDS011;62797;49.740;10.154;2023-10-08T00:26:00;7.23;;;3.50;;
74363;SDS011;62797;49.740;10.154;2023-10-08T00:28:30;7.63;;;3.55;;
74363;SDS011;62797;49.740;10.154;2023-10-08T00:30:57;10.57;;;4.93;;
74363;SDS011;62797;49.740;10.154;2023-10-08T00:33:30;9.07;;;3.78;;
74363;SDS011;62797;49.740;10.154;2023-10-08T00:35:56;6.13;;;3.47;;
74363;SDS011;62797;49.740;10.154;2023-10-08T00:38:22;6.90;;;4.13;;
74363;SDS011;62797;49.740;10.154;2023-10-08T00:40:50;7.53;;;3.28;;
74363;SDS011;62797;49.740;10.154;2023-10-08T00:43:33;11.40;;;4.22;;
74363;SDS011;62797;49.740;10.154;2023-10-08T00:46:03;12.88;;;4.22;;
74363;SDS011;62797;49.740;10.154;2023-10-08T00:48:45;5.80;;;3.42;;
74363;SDS011;62797;49.740;10.154;2023-10-08T00:51:11;9.15;;;4.05;;
74363;SDS011;62797;49.740;10.154;2023-10-08T00:54:02;9.88;;;3.45;;
74363;SDS011;62797;49.740;10.154;2023-10-08T00:56:34;9.18;;;4.32;;
74363;SDS011;62797;49.740;10.154;2023-10-08T01:01:52;9.68;;;4.28;;
74363;SDS011;62797;49.740;10.154;2023-10-08T01:04:24;7.38;;;3.28;;
74363;SDS011;62797;49.740;10.154;2023-10-08T01:06:55;13.45;;;3.80;;
74363;SDS011;62797;49.740;10.154;2023-10-08T01:09:29;9.82;;;4.38;;
74363;SDS011;62797;49.740;10.154;2023-10-08T01:12:10;8.48;;;3.55;;
74363;SDS011;62797;49.740;10.154;2023-10-08T01:14:44;10.02;;;3.40;;
74363;SDS011;62797;49.740;10.154;2023-10-08T01:17:12;7.63;;;3.75;;
74363;SDS011;62797;49.740;10.154;2023-10-08T01:19:44;7.57;;;3.10;;
74363;SDS011;62797;49.740;10.154;2023-10-08T01:22:16;8.32;;;3.42;;
74363;SDS011;62797;49.740;10.154;2023-10-08T01:24:44;8.40;;;3.83;;
74363;SDS011;62797;49.740;10.154;2023-10-08T01:27:17;6.97;;;3.90;;
74363;SDS011;62797;49.740;10.154;2023-10-08T01:29:50;6.43;;;3.37;;
74363;SDS011;62797;49.740;10.154;2023-10-08T01:32:20;8.45;;;4.72;;
74363;SDS011;62797;49.740;10.154;2023-10-08T01:34:47;7.43;;;2.92;;
74363;SDS011;62797;49.740;10.154;2023-10-08T01:37:14;7.75;;;3.92;;
74363;SDS011;62797;49.740;10.154;2023-10-08T01:39:44;6.57;;;3.33;;
74363;SDS011;62797;49.740;10.154;2023-10-08T01:42:15;9.48;;;4.20;;
74363;SDS011;62797;49.740;10.154;2023-10-08T01:44:46;8.18;;;3.78;;
74363;SDS011;62797;49.740;10.154;2023-10-08T01:47:13;9.20;;;4.00;;
74363;SDS011;62797;49.740;10.154;2023-10-08T01:49:41;8.65;;;3.53;;
74363;SDS011;62797;49.740;10.154;2023-10-08T01:52:11;10.05;;;4.10;;
74363;SDS011;62797;49.740;10.154;2023-10-08T01:54:46;8.57;;;3.90;;
74363;SDS011;62797;49.740;10.154;2023-10-08T01:57:19;9.00;;;4.10;;
74363;SDS011;62797;49.740;10.154;2023-10-08T01:59:44;11.90;;;4.13;;
74363;SDS011;62797;49.740;10.154;2023-10-08T02:02:10;7.93;;;3.92;;
74363;SDS011;62797;49.740;10.154;2023-10-08T02:04:39;9.10;;;3.70;;
74363;SDS011;62797;49.740;10.154;2023-10-08T02:07:05;9.32;;;3.97;;
74363;SDS011;62797;49.740;10.154;2023-10-08T02:09:38;11.35;;;4.00;;
74363;SDS011;62797;49.740;10.154;2023-10-08T02:12:06;8.23;;;3.40;;
74363;SDS011;62797;49.740;10.154;2023-10-08T02:14:33;7.82;;;3.67;;
74363;SDS011;62797;49.740;10.154;2023-10-08T02:17:01;9.95;;;3.95;;
74363;SDS011;62797;49.740;10.154;2023-10-08T02:19:31;9.05;;;3.80;;
74363;SDS011;62797;49.740;10.154;2023-10-08T02:21:58;8.35;;;3.13;;
74363;SDS011;62797;49.740;10.154;2023-10-08T02:24:24;7.75;;;3.70;;
74363;SDS011;62797;49.740;10.154;2023-10-08T02:26:51;7.35;;;4.05;;
74363;SDS011;62797;49.740;10.154;2023-10-08T02:29:17;11.77;;;4.40;;
74363;SDS011;62797;49.740;10.154;2023-10-08T02:31:43;5.45;;;3.40;;
74363;SDS011;62797;49.740;10.154;2023-10-08T02:34:11;7.30;;;3.60;;
74363;SDS011;62797;49.740;10.154;2023-10-08T02:36:37;13.13;;;3.92;;
74363;SDS011;62797;49.740;10.154;2023-10-08T02:39:06;9.18;;;4.75;;
74363;SDS011;62797;49.740;10.154;2023-10-08T02:41:46;8.43;;;3.40;;
74363;SDS011;62797;49.740;10.154;2023-10-08T02:46:39;8.20;;;3.45;;
74363;SDS011;62797;49.740;10.154;2023-10-08T02:49:13;9.20;;;3.58;;
74363;SDS011;62797;49.740;10.154;2023-10-08T02:51:50;8.57;;;3.75;;
74363;SDS011;62797;49.740;10.154;2023-10-08T02:54:20;5.03;;;3.08;;
74363;SDS011;62797;49.740;10.154;2023-10-08T02:56:49;12.40;;;3.70;;
74363;SDS011;62797;49.740;10.154;2023-10-08T02:59:22;10.38;;;4.43;;
74363;SDS011;62797;49.740;10.154;2023-10-08T03:01:50;6.72;;;3.53;;
74363;SDS011;62797;49.740;10.154;2023-10-08T03:04:21;12.40;;;4.05;;
74363;SDS011;62797;49.740;10.154;2023-10-08T03:06:52;10.23;;;3.08;;
74363;SDS011;62797;49.740;10.154;2023-10-08T03:09:19;13.70;;;3.83;;
74363;SDS011;62797;49.740;10.154;2023-10-08T03:11:50;9.98;;;3.67;;
74363;SDS011;62797;49.740;10.154;2023-10-08T03:14:18;9.27;;;3.45;;
74363;SDS011;62797;49.740;10.154;2023-10-08T03:16:48;7.88;;;4.30;;
74363;SDS011;62797;49.740;10.154;2023-10-08T03:19:19;14.00;;;3.53;;
74363;SDS011;62797;49.740;10.154;2023-10-08T03:21:47;7.57;;;3.55;;
74363;SDS011;62797;49.740;10.154;2023-10-08T03:24:16;13.02;;;4.38;;
74363;SDS011;62797;49.740;10.154;2023-10-08T03:27:04;11.82;;;3.53;;
74363;SDS011;62797;49.740;10.154;2023-10-08T03:29:57;9.63;;;3.75;;
74363;SDS011;62797;49.740;10.154;2023-10-08T03:32:24;7.20;;;3.92;;
74363;SDS011;62797;49.740;10.154;2023-10-08T03:34:52;7.43;;;4.10;;
74363;SDS011;62797;49.740;10.154;2023-10-08T03:37:21;7.70;;;3.88;;
74363;SDS011;62797;49.740;10.154;2023-10-08T03:39:54;6.53;;;3.33;;
74363;SDS011;62797;49.740;10.154;2023-10-08T03:42:47;9.57;;;3.53;;
74363;SDS011;62797;49.740;10.154;2023-10-08T03:45:14;8.23;;;3.47;;
74363;SDS011;62797;49.740;10.154;2023-10-08T03:47:47;9.13;;;4.20;;
74363;SDS011;62797;49.740;10.154;2023-10-08T03:50:28;9.85;;;4.35;;
74363;SDS011;62797;49.740;10.154;2023-10-08T03:53:08;9.40;;;3.92;;
74363;SDS011;62797;49.740;10.154;2023-10-08T03:55:40;8.95;;;4.50;;
74363;SDS011;62797;49.740;10.154;2023-10-08T03:58:07;9.70;;;4.22;;
74363;SDS011;62797;49.740;10.154;2023-10-08T04:00:44;7.07;;;3.13;;
74363;SDS011;62797;49.740;10.154;2023-10-08T04:03:11;12.23;;;4.30;;
74363;SDS011;62797;49.740;10.154;2023-10-08T04:05:37;9.32;;;4.28;;
74363;SDS011;62797;49.740;10.154;2023-10-08T04:08:21;11.55;;;4.20;;
74363;SDS011;62797;49.740;10.154;2023-10-08T04:11:07;9.25;;;4.60;;
74363;SDS011;62797;49.740;10.154;2023-10-08T04:14:11;11.98;;;3.95;;
74363;SDS011;62797;49.740;10.154;2023-10-08T04:16:37;8.93;;;3.77;;
74363;SDS011;62797;49.740;10.154;2023-10-08T04:19:03;8.98;;;4.30;;
74363;SDS011;62797;49.740;10.154;2023-10-08T04:21:30;11.88;;;4.03;;
74363;SDS011;62797;49.740;10.154;2023-10-08T04:23:58;8.30;;;3.70;;
74363;SDS011;62797;49.740;10.154;2023-10-08T04:26:33;10.95;;;4.32;;
74363;SDS011;62797;49.740;10.154;2023-10-08T04:29:00;9.95;;;3.50;;
74363;SDS011;62797;49.740;10.154;2023-10-08T04:31:32;7.53;;;3.67;;
74363;SDS011;62797;49.740;10.154;2023-10-08T04:34:02;8.77;;;4.32;;
74363;SDS011;62797;49.740;10.154;2023-10-08T04:36:43;8.48;;;3.80;;
74363;SDS011;62797;49.740;10.154;2023-10-08T04:39:19;11.30;;;4.28;;
74363;SDS011;62797;49.740;10.154;2023-10-08T04:41:51;14.35;;;5.20;;
74363;SDS011;62797;49.740;10.154;2023-10-08T04:44:19;11.55;;;3.83;;
74363;SDS011;62797;49.740;10.154;2023-10-08T04:46:46;6.82;;;3.63;;
74363;SDS011;62797;49.740;10.154;2023-10-08T04:49:15;8.68;;;4.13;;
74363;SDS011;62797;49.740;10.154;2023-10-08T04:51:56;8.48;;;3.55;;
74363;SDS011;62797;49.740;10.154;2023-10-08T04:54:28;9.10;;;4.25;;
74363;SDS011;62797;49.740;10.154;2023-10-08T04:56:58;11.50;;;4.13;;
74363;SDS011;62797;49.740;10.154;2023-10-08T04:59:30;9.40;;;3.92;;
74363;SDS011;62797;49.740;10.154;2023-10-08T05:02:02;11.85;;;5.13;;
74363;SDS011;62797;49.740;10.154;2023-10-08T05:04:49;12.93;;;4.17;;
74363;SDS011;62797;49.740;10.154;2023-10-08T05:07:41;8.60;;;3.78;;
74363;SDS011;62797;49.740;10.154;2023-10-08T05:10:10;11.57;;;4.65;;
74363;SDS011;62797;49.740;10.154;2023-10-08T05:12:37;10.57;;;4.07;;
74363;SDS011;62797;49.740;10.154;2023-10-08T05:15:10;9.65;;;4.47;;
74363;SDS011;62797;49.740;10.154;2023-10-08T05:17:45;10.68;;;4.18;;
74363;SDS011;62797;49.740;10.154;2023-10-08T05:20:15;8.73;;;4.28;;
74363;SDS011;62797;49.740;10.154;2023-10-08T05:23:09;13.70;;;4.60;;
74363;SDS011;62797;49.740;10.154;2023-10-08T05:25:54;10.88;;;3.97;;
74363;SDS011;62797;49.740;10.154;2023-10-08T05:28:37;11.95;;;4.03;;
74363;SDS011;62797;49.740;10.154;2023-10-08T05:31:29;8.57;;;4.00;;
74363;SDS011;62797;49.740;10.154;2023-10-08T05:34:06;12.77;;;4.18;;
74363;SDS011;62797;49.740;10.154;2023-10-08T05:36:51;10.35;;;4.70;;
74363;SDS011;62797;49.740;10.154;2023-10-08T05:39:22;13.73;;;4.30;;
74363;SDS011;62797;49.740;10.154;2023-10-08T05:42:03;8.52;;;4.03;;
74363;SDS011;62797;49.740;10.154;2023-10-08T05:44:43;7.27;;;4.57;;
74363;SDS011;62797;49.740;10.154;2023-10-08T05:47:28;10.10;;;4.57;;
74363;SDS011;62797;49.740;10.154;2023-10-08T05:49:57;11.75;;;5.15;;
74363;SDS011;62797;49.740;10.154;2023-10-08T05:52:41;9.05;;;4.43;;
74363;SDS011;62797;49.740;10.154;2023-10-08T05:55:22;12.55;;;5.60;;
74363;SDS011;62797;49.740;10.154;2023-10-08T05:57:55;12.93;;;4.78;;
74363;SDS011;62797;49.740;10.154;2023-10-08T06:00:44;11.02;;;4.93;;
74363;SDS011;62797;49.740;10.154;2023-10-08T06:03:28;8.73;;;4.55;;
74363;SDS011;62797;49.740;10.154;2023-10-08T06:06:00;5.70;;;3.20;;
74363;SDS011;62797;49.740;10.154;2023-10-08T06:08:39;8.30;;;4.20;;
74363;SDS011;62797;49.740;10.154;2023-10-08T06:11:35;10.68;;;4.75;;
74363;SDS011;62797;49.740;10.154;2023-10-08T06:14:21;10.77;;;3.83;;
74363;SDS011;62797;49.740;10.154;2023-10-08T06:17:07;9.73;;;4.22;;
74363;SDS011;62797;49.740;10.154;2023-10-08T06:19:48;8.65;;;4.03;;
74363;SDS011;62797;49.740;10.154;2023-10-08T06:22:18;11.05;;;4.40;;
74363;SDS011;62797;49.740;10.154;2023-10-08T06:24:45;8.95;;;4.95;;
74363;SDS011;62797;49.740;10.154;2023-10-08T06:27:11;9.75;;;3.67;;
74363;SDS011;62797;49.740;10.154;2023-10-08T06:29:42;9.20;;;4.40;;
74363;SDS011;62797;49.740;10.154;2023-10-08T06:32:09;8.65;;;4.22;;
74363;SDS011;62797;49.740;10.154;2023-10-08T06:34:37;12.98;;;4.75;;
74363;SDS011;62797;49.740;10.154;2023-10-08T06:37:05;13.02;;;4.47;;
74363;SDS011;62797;49.740;10.154;2023-10-08T06:39:33;9.63;;;4.28;;
74363;SDS011;62797;49.740;10.154;2023-10-08T06:42:12;8.50;;;4.40;;
74363;SDS011;62797;49.740;10.154;2023-10-08T06:44:42;15.07;;;5.22;;
74363;SDS011;62797;49.740;10.154;2023-10-08T06:47:11;8.50;;;4.30;;
74363;SDS011;62797;49.740;10.154;2023-10-08T06:49:40;6.65;;;3.55;;
74363;SDS011;62797;49.740;10.154;2023-10-08T06:52:08;12.23;;;4.35;;
74363;SDS011;62797;49.740;10.154;2023-10-08T06:54:37;12.25;;;4.30;;
74363;SDS011;62797;49.740;10.154;2023-10-08T06:57:03;10.83;;;4.03;;
74363;SDS011;62797;49.740;10.154;2023-10-08T06:59:29;10.37;;;4.70;;
74363;SDS011;62797;49.740;10.154;2023-10-08T07:01:56;11.77;;;4.18;;
74363;SDS011;62797;49.740;10.154;2023-10-08T07:04:24;10.93;;;4.22;;
74363;SDS011;62797;49.740;10.154;2023-10-08T07:06:50;8.02;;;4.03;;
74363;SDS011;62797;49.740;10.154;2023-10-08T07:09:16;8.77;;;4.30;;
74363;SDS011;62797;49.740;10.154;2023-10-08T07:11:50;9.60;;;4.10;;
74363;SDS011;62797;49.740;10.154;2023-10-08T07:14:23;12.07;;;4.22;;
74363;SDS011;62797;49.740;10.154;2023-10-08T07:16:53;11.55;;;4.13;;
74363;SDS011;62797;49.740;10.154;2023-10-08T07:19:20;12.90;;;4.35;;
74363;SDS011;62797;49.740;10.154;2023-10-08T07:21:49;12.45;;;5.85;;
74363;SDS011;62797;49.740;10.154;2023-10-08T07:24:19;11.88;;;4.45;;
74363;SDS011;62797;49.740;10.154;2023-10-08T07:26:49;10.95;;;3.85;;
74363;SDS011;62797;49.740;10.154;2023-10-08T07:29:15;10.65;;;4.20;;
74363;SDS011;62797;49.740;10.154;2023-10-08T07:31:42;14.95;;;4.82;;
74363;SDS011;62797;49.740;10.154;2023-10-08T07:34:14;9.57;;;3.45;;
74363;SDS011;62797;49.740;10.154;2023-10-08T07:36:49;8.43;;;4.30;;
74363;SDS011;62797;49.740;10.154;2023-10-08T07:39:16;15.38;;;5.00;;
74363;SDS011;62797;49.740;10.154;2023-10-08T07:41:59;13.77;;;4.93;;
74363;SDS011;62797;49.740;10.154;2023-10-08T07:44:27;9.70;;;3.85;;
74363;SDS011;62797;49.740;10.154;2023-10-08T07:46:56;10.23;;;4.13;;
74363;SDS011;62797;49.740;10.154;2023-10-08T07:49:22;10.57;;;5.15;;
74363;SDS011;62797;49.740;10.154;2023-10-08T07:51:50;10.50;;;4.00;;
74363;SDS011;62797;49.740;10.154;2023-10-08T07:54:17;20.52;;;6.43;;
74363;SDS011;62797;49.740;10.154;2023-10-08T07:56:48;12.73;;;4.85;;
74363;SDS011;62797;49.740;10.154;2023-10-08T07:59:16;18.23;;;5.20;;
74363;SDS011;62797;49.740;10.154;2023-10-08T08:01:42;9.70;;;3.80;;
74363;SDS011;62797;49.740;10.154;2023-10-08T08:04:11;12.38;;;4.57;;
74363;SDS011;62797;49.740;10.154;2023-10-08T08:06:50;7.97;;;4.53;;
74363;SDS011;62797;49.740;10.154;2023-10-08T08:09:18;10.30;;;3.88;;
74363;SDS011;62797;49.740;10.154;2023-10-08T08:11:48;8.38;;;3.88;;
74363;SDS011;62797;49.740;10.154;2023-10-08T08:14:14;9.05;;;4.47;;
74363;SDS011;62797;49.740;10.154;2023-10-08T08:16:44;10.82;;;4.15;;
74363;SDS011;62797;49.740;10.154;2023-10-08T08:19:13;9.52;;;4.15;;
74363;SDS011;62797;49.740;10.154;2023-10-08T08:21:45;17.58;;;5.20;;
74363;SDS011;62797;49.740;10.154;2023-10-08T08:24:11;11.95;;;3.80;;
74363;SDS011;62797;49.740;10.154;2023-10-08T08:26:38;9.05;;;3.95;;
74363;SDS011;62797;49.740;10.154;2023-10-08T08:29:26;13.27;;;4.40;;
74363;SDS011;62797;49.740;10.154;2023-10-08T08:31:54;15.48;;;5.65;;
74363;SDS011;62797;49.740;10.154;2023-10-08T08:34:22;9.77;;;4.18;;
74363;SDS011;62797;49.740;10.154;2023-10-08T08:36:49;9.77;;;4.47;;
74363;SDS011;62797;49.740;10.154;2023-10-08T08:39:15;10.90;;;4.63;;
74363;SDS011;62797;49.740;10.154;2023-10-08T08:42:02;12.82;;;4.65;;
74363;SDS011;62797;49.740;10.154;2023-10-08T08:44:29;10.70;;;4.47;;
74363;SDS011;62797;49.740;10.154;2023-10-08T08:47:00;7.15;;;3.92;;
74363;SDS011;62797;49.740;10.154;2023-10-08T08:49:32;10.98;;;4.03;;
74363;SDS011;62797;49.740;10.154;2023-10-08T08:52:02;9.18;;;4.32;;
74363;SDS011;62797;49.740;10.154;2023-10-08T08:54:29;9.07;;;4.40;;
74363;SDS011;62797;49.740;10.154;2023-10-08T08:56:59;9.63;;;4.97;;
74363;SDS011;62797;49.740;10.154;2023-10-08T08:59:29;15.27;;;5.88;;
74363;SDS011;62797;49.740;10.154;2023-10-08T09:01:58;13.25;;;4.60;;
74363;SDS011;62797;49.740;10.154;2023-10-08T09:04:28;12.27;;;4.88;;
74363;SDS011;62797;49.740;10.154;2023-10-08T09:06:55;10.55;;;4.45;;
74363;SDS011;62797;49.740;10.154;2023-10-08T09:09:21;18.58;;;8.43;;
74363;SDS011;62797;49.740;10.154;2023-10-08T09:11:50;10.52;;;4.00;;
74363;SDS011;62797;49.740;10.154;2023-10-08T09:14:26;7.93;;;4.03;;
74363;SDS011;62797;49.740;10.154;2023-10-08T09:16:57;12.00;;;4.53;;
74363;SDS011;62797;49.740;10.154;2023-10-08T09:19:24;9.05;;;4.10;;
74363;SDS011;62797;49.740;10.154;2023-10-08T09:24:32;14.35;;;4.85;;
74363;SDS011;62797;49.740;10.154;2023-10-08T09:26:59;14.13;;;5.00;;
74363;SDS011;62797;49.740;10.154;2023-10-08T09:29:26;13.75;;;5.07;;
74363;SDS011;62797;49.740;10.154;2023-10-08T09:31:53;11.10;;;4.07;;
74363;SDS011;62797;49.740;10.154;2023-10-08T09:34:21;9.48;;;4.85;;
74363;SDS011;62797;49.740;10.154;2023-10-08T09:36:48;13.27;;;4.75;;
74363;SDS011;62797;49.740;10.154;2023-10-08T09:39:14;10.75;;;4.07;;
74363;SDS011;62797;49.740;10.154;2023-10-08T09:41:49;15.35;;;5.60;;
74363;SDS011;62797;49.740;10.154;2023-10-08T09:44:16;9.18;;;4.75;;
74363;SDS011;62797;49.740;10.154;2023-10-08T09:46:44;13.73;;;5.43;;
74363;SDS011;62797;49.740;10.154;2023-10-08T09:49:17;11.65;;;5.22;;
74363;SDS011;62797;49.740;10.154;2023-10-08T09:51:47;12.45;;;5.47;;
74363;SDS011;62797;49.740;10.154;2023-10-08T09:54:20;13.02;;;4.18;;
74363;SDS011;62797;49.740;10.154;2023-10-08T09:56:49;11.85;;;4.93;;
74363;SDS011;62797;49.740;10.154;2023-10-08T09:59:17;13.48;;;4.68;;
74363;SDS011;62797;49.740;10.154;2023-10-08T10:01:44;33.67;;;6.00;;
74363;SDS011;62797;49.740;10.154;2023-10-08T10:04:21;21.48;;;5.28;;
74363;SDS011;62797;49.740;10.154;2023-10-08T10:06:49;22.17;;;6.88;;
74363;SDS011;62797;49.740;10.154;2023-10-08T10:09:22;13.15;;;6.43;;
74363;SDS011;62797;49.740;10.154;2023-10-08T10:11:49;12.57;;;5.28;;
74363;SDS011;62797;49.740;10.154;2023-10-08T10:14:17;14.25;;;4.82;;
74363;SDS011;62797;49.740;10.154;2023-10-08T10:16:43;12.65;;;4.60;;
74363;SDS011;62797;49.740;10.154;2023-10-08T10:19:16;12.30;;;5.43;;
74363;SDS011;62797;49.740;10.154;2023-10-08T10:23:57;16.75;;;4.50;;
74363;SDS011;62797;49.740;10.154;2023-10-08T10:31:37;12.20;;;4.93;;
74363;SDS011;62797;49.740;10.154;2023-10-08T10:34:07;13.82;;;5.50;;
74363;SDS011;62797;49.740;10.154;2023-10-08T10:36:37;9.05;;;4.43;;
74363;SDS011;62797;49.740;10.154;2023-10-08T10:39:07;11.30;;;5.00;;
74363;SDS011;62797;49.740;10.154;2023-10-08T10:44:15;15.98;;;6.45;;
74363;SDS011;62797;49.740;10.154;2023-10-08T10:46:44;16.42;;;5.43;;
74363;SDS011;62797;49.740;10.154;2023-10-08T10:49:17;11.90;;;4.37;;
74363;SDS011;62797;49.740;10.154;2023-10-08T10:51:50;10.32;;;4.90;;
74363;SDS011;62797;49.740;10.154;2023-10-08T10:54:25;14.95;;;5.97;;
74363;SDS011;62797;49.740;10.154;2023-10-08T10:56:52;12.95;;;5.30;;
74363;SDS011;62797;49.740;10.154;2023-10-08T10:59:43;21.38;;;5.80;;
74363;SDS011;62797;49.740;10.154;2023-10-08T11:02:18;13.20;;;6.15;;
74363;SDS011;62797;49.740;10.154;2023-10-08T11:04:55;15.57;;;5.68;;
74363;SDS011;62797;49.740;10.154;2023-10-08T11:07:32;15.60;;;6.00;;
74363;SDS011;62797;49.740;10.154;2023-10-08T11:12:24;14.90;;;5.07;;
74363;SDS011;62797;49.740;10.154;2023-10-08T11:15:08;20.80;;;6.03;;
74363;SDS011;62797;49.740;10.154;2023-10-08T11:17:41;16.08;;;5.18;;
74363;SDS011;62797;49.740;10.154;2023-10-08T11:20:24;13.23;;;5.60;;
74363;SDS011;62797;49.740;10.154;2023-10-08T11:22:51;14.60;;;5.25;;
74363;SDS011;62797;49.740;10.154;2023-10-08T11:25:22;12.18;;;5.80;;
74363;SDS011;62797;49.740;10.154;2023-10-08T11:27:52;20.73;;;6.15;;
74363;SDS011;62797;49.740;10.154;2023-10-08T11:30:34;16.58;;;7.38;;
74363;SDS011;62797;49.740;10.154;2023-10-08T11:33:01;23.92;;;5.15;;
74363;SDS011;62797;49.740;10.154;2023-10-08T11:35:26;18.40;;;5.90;;
74363;SDS011;62797;49.740;10.154;2023-10-08T11:40:23;37.67;;;12.23;;
74363;SDS011;62797;49.740;10.154;2023-10-08T11:42:56;11.48;;;5.25;;
74363;SDS011;62797;49.740;10.154;2023-10-08T11:45:28;17.90;;;7.43;;
74363;SDS011;62797;49.740;10.154;2023-10-08T11:48:04;14.80;;;5.97;;
74363;SDS011;62797;49.740;10.154;2023-10-08T11:50:37;15.73;;;6.03;;
74363;SDS011;62797;49.740;10.154;2023-10-08T11:53:04;14.25;;;5.93;;
74363;SDS011;62797;49.740;10.154;2023-10-08T11:55:33;17.05;;;5.72;;
74363;SDS011;62797;49.740;10.154;2023-10-08T11:58:04;21.20;;;6.68;;
74363;SDS011;62797;49.740;10.154;2023-10-08T12:00:37;14.57;;;6.28;;
74363;SDS011;62797;49.740;10.154;2023-10-08T12:03:09;14.70;;;5.38;;
74363;SDS011;62797;49.740;10.154;2023-10-08T12:05:38;14.73;;;5.60;;
74363;SDS011;62797;49.740;10.154;2023-10-08T12:08:14;23.10;;;6.43;;
74363;SDS011;62797;49.740;10.154;2023-10-08T12:10:45;15.07;;;5.88;;
74363;SDS011;62797;49.740;10.154;2023-10-08T12:13:13;19.98;;;6.70;;
74363;SDS011;62797;49.740;10.154;2023-10-08T12:15:41;15.98;;;5.90;;
74363;SDS011;62797;49.740;10.154;2023-10-08T12:18:09;22.60;;;5.63;;
74363;SDS011;62797;49.740;10.154;2023-10-08T12:20:50;18.33;;;6.15;;
74363;SDS011;62797;49.740;10.154;2023-10-08T12:23:17;12.45;;;5.45;;
74363;SDS011;62797;49.740;10.154;2023-10-08T12:25:54;14.88;;;6.20;;
74363;SDS011;62797;49.740;10.154;2023-10-08T12:28:24;18.77;;;6.80;;
74363;SDS011;62797;49.740;10.154;2023-10-08T12:30:50;19.85;;;5.82;;
74363;SDS011;62797;49.740;10.154;2023-10-08T12:33:22;19.02;;;5.65;;
74363;SDS011;62797;49.740;10.154;2023-10-08T12:35:51;19.02;;;5.97;;
74363;SDS011;62797;49.740;10.154;2023-10-08T12:38:21;22.98;;;7.15;;
74363;SDS011;62797;49.740;10.154;2023-10-08T12:40:47;18.83;;;5.72;;
74363;SDS011;62797;49.740;10.154;2023-10-08T12:43:18;19.85;;;6.78;;
74363;SDS011;62797;49.740;10.154;2023-10-08T12:45:50;11.05;;;6.30;;
74363;SDS011;62797;49.740;10.154;2023-10-08T12:48:24;18.48;;;6.10;;
74363;SDS011;62797;49.740;10.154;2023-10-08T12:50:54;17.13;;;6.30;;
74363;SDS011;62797;49.740;10.154;2023-10-08T12:53:24;18.63;;;5.95;;
74363;SDS011;62797;49.740;10.154;2023-10-08T12:56:01;18.23;;;5.38;;
74363;SDS011;62797;49.740;10.154;2023-10-08T12:58:36;19.65;;;6.75;;
74363;SDS011;62797;49.740;10.154;2023-10-08T13:01:09;17.60;;;4.85;;
74363;SDS011;62797;49.740;10.154;2023-10-08T13:03:39;13.00;;;5.93;;
74363;SDS011;62797;49.740;10.154;2023-10-08T13:06:11;21.48;;;6.53;;
74363;SDS011;62797;49.740;10.154;2023-10-08T13:08:46;12.50;;;5.30;;
74363;SDS011;62797;49.740;10.154;2023-10-08T13:11:19;18.55;;;5.70;;
74363;SDS011;62797;49.740;10.154;2023-10-08T13:13:57;19.98;;;6.85;;
74363;SDS011;62797;49.740;10.154;2023-10-08T13:16:24;16.58;;;5.10;;
74363;SDS011;62797;49.740;10.154;2023-10-08T13:18:50;17.90;;;6.70;;
74363;SDS011;62797;49.740;10.154;2023-10-08T13:21:17;13.27;;;6.82;;
74363;SDS011;62797;49.740;10.154;2023-10-08T13:23:52;16.17;;;6.30;;
74363;SDS011;62797;49.740;10.154;2023-10-08T13:26:17;18.92;;;7.00;;
74363;SDS011;62797;49.740;10.154;2023-10-08T13:28:46;16.92;;;5.65;;
74363;SDS011;62797;49.740;10.154;2023-10-08T13:31:11;20.90;;;7.27;;
74363;SDS011;62797;49.740;10.154;2023-10-08T13:33:37;14.87;;;6.33;;
74363;SDS011;62797;49.740;10.154;2023-10-08T13:36:04;16.13;;;5.80;;
74363;SDS011;62797;49.740;10.154;2023-10-08T13:38:38;11.80;;;5.75;;
74363;SDS011;62797;49.740;10.154;2023-10-08T13:41:06;17.45;;;6.53;;
74363;SDS011;62797;49.740;10.154;2023-10-08T13:43:48;14.57;;;5.90;;
74363;SDS011;62797;49.740;10.154;2023-10-08T13:46:17;12.13;;;6.07;;
74363;SDS011;62797;49.740;10.154;2023-10-08T13:48:44;15.10;;;6.65;;
74363;SDS011;62797;49.740;10.154;2023-10-08T13:51:14;14.75;;;6.32;;
74363;SDS011;62797;49.740;10.154;2023-10-08T13:53:51;23.25;;;8.55;;
74363;SDS011;62797;49.740;10.154;2023-10-08T13:56:24;19.52;;;8.35;;
74363;SDS011;62797;49.740;10.154;2023-10-08T13:58:56;26.38;;;9.00;;
74363;SDS011;62797;49.740;10.154;2023-10-08T14:01:33;14.38;;;5.72;;
74363;SDS011;62797;49.740;10.154;2023-10-08T14:03:59;10.95;;;4.28;;
74363;SDS011;62797;49.740;10.154;2023-10-08T14:06:32;14.40;;;5.95;;
74363;SDS011;62797;49.740;10.154;2023-10-08T14:09:00;13.10;;;5.20;;
74363;SDS011;62797;49.740;10.154;2023-10-08T14:11:26;16.48;;;5.85;;
74363;SDS011;62797;49.740;10.154;2023-10-08T14:13:57;9.85;;;4.82;;
74363;SDS011;62797;49.740;10.154;2023-10-08T14:16:27;10.77;;;4.60;;
74363;SDS011;62797;49.740;10.154;2023-10-08T14:18:57;16.67;;;5.40;;
74363;SDS011;62797;49.740;10.154;2023-10-08T14:21:25;20.17;;;5.47;;
74363;SDS011;62797;49.740;10.154;2023-10-08T14:23:58;12.23;;;4.70;;
74363;SDS011;62797;49.740;10.154;2023-10-08T14:26:30;9.85;;;4.63;;
74363;SDS011;62797;49.740;10.154;2023-10-08T14:29:03;13.45;;;4.00;;
74363;SDS011;62797;49.740;10.154;2023-10-08T14:31:49;9.55;;;4.65;;
74363;SDS011;62797;49.740;10.154;2023-10-08T14:34:15;10.68;;;5.65;;
74363;SDS011;62797;49.740;10.154;2023-10-08T14:36:45;10.48;;;4.03;;
74363;SDS011;62797;49.740;10.154;2023-10-08T14:39:33;11.88;;;4.85;;
74363;SDS011;62797;49.740;10.154;2023-10-08T14:42:18;13.82;;;4.07;;
74363;SDS011;62797;49.740;10.154;2023-10-08T14:45:02;12.18;;;4.35;;
74363;SDS011;62797;49.740;10.154;2023-10-08T14:47:35;13.40;;;4.85;;
74363;SDS011;62797;49.740;10.154;2023-10-08T14:50:04;9.95;;;4.28;;
74363;SDS011;62797;49.740;10.154;2023-10-08T14:54:58;8.57;;;4.03;;
74363;SDS011;62797;49.740;10.154;2023-10-08T14:57:24;13.80;;;6.03;;
74363;SDS011;62797;49.740;10.154;2023-10-08T14:59:51;10.05;;;5.40;;
74363;SDS011;62797;49.740;10.154;2023-10-08T15:02:17;8.73;;;4.28;;
74363;SDS011;62797;49.740;10.154;2023-10-08T15:04:43;14.93;;;5.65;;
74363;SDS011;62797;49.740;10.154;2023-10-08T15:07:09;21.15;;;5.50;;
74363;SDS011;62797;49.740;10.154;2023-10-08T15:09:36;10.85;;;4.22;;
74363;SDS011;62797;49.740;10.154;2023-10-08T15:12:04;8.57;;;4.18;;
74363;SDS011;62797;49.740;10.154;2023-10-08T15:14:31;16.52;;;4.80;;
74363;SDS011;62797;49.740;10.154;2023-10-08T15:16:58;11.82;;;5.07;;